Main page
METAR-TAF:

METAR-TAF

Airports :

Wattisham Flying Station

Wattisham, England

latitude: 52-07N, longitude: 000-58E, elevation: 87 m

Current weather observation

The report was made 1 hour and 10 minutes ago, at 02:50 UTC
Wind 6 kt from the North
Temperature 4°C
Humidity 93%
Pressure 1003 hPa
Visibility 10 km or more

METAR: EGUW 150250Z AUTO 36006KT 9999 FEW028/// SCT050/// BKN120/// 04/03 Q1003

Time: 04:00 (04:00 UTC)

Forecast

The report was made 8 hours and 40 minutes ago, at 19:20 UTC
Forecast valid from 14 at 21 UTC to 15 at 01 UTC
Wind 5 kt from the East/Northeast
Visibility 10 km or more
Scattered clouds at a height of 2500 ft

TAF: EGUW 141920Z 1421/1501 06005KT 9999 SCT025

Weather observations and forecasts of more than 4000 airports (METAR and TAF reports).

The available stations are represented by yellow and red dots on the map.

Hover mouse over dot to see the name of the station.

Then click to see weather observations and forecasts.

To change the map : click on the green buttons with a black cross to zoom in, on the green button with a dash to zoom out, or on the green arrows for adjacent maps.


METAR-TAF: